createdAt,value
2018-03-16T00:02:00.016Z,67.87
2018-03-16T00:04:28.144Z,71.83
2018-03-16T00:06:56.275Z,71.10
2018-03-16T00:09:24.480Z,81.30
2018-03-16T00:11:52.611Z,74.17
2018-03-16T00:14:20.830Z,69.67
2018-03-16T00:16:50.104Z,71.83
2018-03-16T00:19:18.255Z,74.07
2018-03-16T00:21:46.418Z,72.60
2018-03-16T00:24:14.568Z,72.20
2018-03-16T00:26:43.364Z,82.67
2018-03-16T00:29:11.503Z,70.17
2018-03-16T00:31:39.722Z,73.10
2018-03-16T00:34:07.873Z,77.93
2018-03-16T00:36:36.092Z,77.17
2018-03-16T00:39:04.235Z,77.30
2018-03-16T00:41:32.355Z,79.10
2018-03-16T00:44:00.494Z,69.73
2018-03-16T00:46:28.659Z,72.00
2018-03-16T00:48:56.864Z,69.27
2018-03-16T00:51:25.014Z,78.10
2018-03-16T00:53:53.198Z,71.28
2018-03-16T00:56:21.351Z,69.65
2018-03-16T00:58:49.473Z,64.33
2018-03-16T01:01:17.709Z,72.10
2018-03-16T01:03:45.874Z,72.90
2018-03-16T01:06:14.003Z,72.30
2018-03-16T01:08:48.254Z,69.40
2018-03-16T01:11:16.391Z,74.20
2018-03-16T01:13:44.495Z,76.17
2018-03-16T01:16:12.684Z,78.80
2018-03-16T01:18:40.865Z,72.67
2018-03-16T01:21:09.075Z,67.07
2018-03-16T01:23:37.212Z,66.13
2018-03-16T01:26:05.804Z,70.73
2018-03-16T01:28:33.976Z,66.70
2018-03-16T01:31:02.203Z,75.87
2018-03-16T01:33:30.522Z,71.47
2018-03-16T01:35:58.679Z,71.60
2018-03-16T01:38:26.805Z,70.57
2018-03-16T01:40:54.952Z,74.00
2018-03-16T01:43:23.117Z,80.05
2018-03-16T01:45:51.276Z,72.93
2018-03-16T01:48:19.488Z,76.60
2018-03-16T01:50:48.526Z,74.20
2018-03-16T01:53:17.610Z,68.20
2018-03-16T01:55:45.791Z,73.90
2018-03-16T01:58:14.029Z,69.33
2018-03-16T02:00:42.185Z,75.60
2018-03-16T02:03:10.360Z,75.20
2018-03-16T02:05:38.540Z,73.57
2018-03-16T02:08:06.750Z,69.13
2018-03-16T02:10:34.899Z,85.87
2018-03-16T02:13:03.062Z,72.73
2018-03-16T02:15:31.284Z,77.90
2018-03-16T02:17:59.440Z,77.13
2018-03-16T02:20:27.599Z,76.70
2018-03-16T02:22:55.727Z,71.60
2018-03-16T02:25:23.855Z,79.70
2018-03-16T02:27:51.981Z,76.10
2018-03-16T02:30:20.149Z,88.20
2018-03-16T02:32:48.264Z,74.83
2018-03-16T02:35:16.433Z,79.43
2018-03-16T02:37:44.632Z,88.70
2018-03-16T02:40:12.780Z,97.07
2018-03-16T02:42:41.107Z,78.77
2018-03-16T02:45:10.214Z,72.70
2018-03-16T02:47:38.355Z,80.47
2018-03-16T02:50:06.478Z,81.77
2018-03-16T02:52:34.667Z,84.00
2018-03-16T02:55:02.848Z,88.73
2018-03-16T02:57:30.979Z,79.63
2018-03-16T02:59:59.128Z,83.13
2018-03-16T03:02:27.264Z,80.53
2018-03-16T03:04:55.391Z,91.67
2018-03-16T03:07:23.527Z,92.37
2018-03-16T03:09:51.654Z,87.20
2018-03-16T03:12:19.825Z,91.68
2018-03-16T03:14:47.953Z,100.63
2018-03-16T03:17:16.099Z,86.57
2018-03-16T03:19:45.631Z,93.07
2018-03-16T03:22:13.790Z,87.00
2018-03-16T03:24:41.914Z,91.03
2018-03-16T03:27:10.518Z,93.77
2018-03-16T03:29:38.653Z,93.27
2018-03-16T03:32:06.797Z,93.97
2018-03-16T03:34:34.939Z,94.03
2018-03-16T03:37:03.083Z,100.13
2018-03-16T03:39:31.249Z,94.17
2018-03-16T03:41:59.383Z,106.27
2018-03-16T03:44:27.530Z,102.30
2018-03-16T03:46:55.667Z,98.73
2018-03-16T03:49:23.786Z,96.30
2018-03-16T03:51:51.928Z,94.33
2018-03-16T03:54:20.062Z,97.73
2018-03-16T03:56:48.199Z,95.50
2018-03-16T03:59:16.346Z,95.30
2018-03-16T04:01:44.603Z,95.00
2018-03-16T04:04:12.746Z,97.70
2018-03-16T04:06:40.865Z,96.17
2018-03-16T04:09:09.244Z,96.40
2018-03-16T04:11:37.361Z,96.07
2018-03-16T04:14:05.514Z,111.80
2018-03-16T04:16:33.646Z,102.07
2018-03-16T04:19:01.786Z,95.67
2018-03-16T04:21:29.925Z,99.85
2018-03-16T04:23:58.047Z,102.60
2018-03-16T04:26:26.186Z,106.50
2018-03-16T04:28:54.341Z,98.73
2018-03-16T04:31:22.490Z,103.17
2018-03-16T04:33:50.623Z,96.93
2018-03-16T04:36:18.771Z,97.27
2018-03-16T04:38:47.378Z,106.77
2018-03-16T04:41:15.506Z,97.85
2018-03-16T04:43:43.636Z,107.40
2018-03-16T04:46:11.841Z,107.97
2018-03-16T04:48:39.980Z,105.60
2018-03-16T04:51:08.149Z,107.83
2018-03-16T04:53:36.294Z,106.67
2018-03-16T04:56:04.471Z,105.90
2018-03-16T04:58:32.611Z,104.57
2018-03-16T05:01:00.766Z,112.53
2018-03-16T05:03:28.902Z,104.33
2018-03-16T05:05:57.042Z,118.37
2018-03-16T05:08:25.201Z,112.87
2018-03-16T05:10:54.300Z,113.40
2018-03-16T05:13:22.443Z,108.35
2018-03-16T05:15:50.572Z,103.50
2018-03-16T05:18:18.710Z,101.23
2018-03-16T05:20:46.842Z,109.60
2018-03-16T05:23:14.976Z,110.80
2018-03-16T05:25:43.098Z,109.27
2018-03-16T05:28:11.260Z,123.97
2018-03-16T05:30:39.587Z,117.93
2018-03-16T05:33:07.724Z,108.03
2018-03-16T05:35:35.862Z,100.70
2018-03-16T05:38:04.005Z,108.53
2018-03-16T05:40:32.131Z,109.67
2018-03-16T05:43:00.275Z,109.57
2018-03-16T05:45:28.415Z,118.25
2018-03-16T05:47:56.549Z,108.87
2018-03-16T05:50:24.696Z,106.50
2018-03-16T05:52:52.820Z,122.97
2018-03-16T05:55:20.990Z,113.65
2018-03-16T05:57:49.124Z,119.93
2018-03-16T06:00:17.253Z,120.10
2018-03-16T06:02:45.427Z,104.67
2018-03-16T06:05:13.559Z,109.80
2018-03-16T06:07:41.744Z,106.50
2018-03-16T06:10:09.890Z,114.23
2018-03-16T06:12:38.024Z,109.83
2018-03-16T06:15:06.262Z,111.30
2018-03-16T06:17:34.392Z,106.83
2018-03-16T06:20:02.621Z,109.53
2018-03-16T06:22:31.466Z,109.05
2018-03-16T06:24:59.604Z,100.45
2018-03-16T06:27:27.749Z,107.65
2018-03-16T06:29:55.881Z,111.77
2018-03-16T06:32:24.075Z,111.80
2018-03-16T06:34:52.382Z,114.17
2018-03-16T06:37:21.041Z,108.65
2018-03-16T06:39:49.172Z,106.90
2018-03-16T06:42:17.308Z,117.37
2018-03-16T06:44:45.590Z,116.67
2018-03-16T06:47:13.584Z,125.70
2018-03-16T06:49:41.741Z,113.33
2018-03-16T06:52:09.901Z,120.53
2018-03-16T06:54:38.031Z,111.27
2018-03-16T06:57:06.179Z,108.40
2018-03-16T06:59:34.320Z,117.27
2018-03-16T07:02:02.457Z,127.97
2018-03-16T07:04:30.606Z,117.00
2018-03-16T07:06:58.744Z,116.80
2018-03-16T07:09:27.004Z,124.37
2018-03-16T07:11:55.144Z,129.23
2018-03-16T07:14:23.279Z,115.10
2018-03-16T07:16:51.415Z,110.70
2018-03-16T07:19:19.561Z,116.73
2018-03-16T07:21:47.703Z,115.67
2018-03-16T07:24:15.842Z,117.20
2018-03-16T07:26:43.974Z,123.80
2018-03-16T07:29:12.115Z,119.50
2018-03-16T07:31:40.250Z,124.00
2018-03-16T07:34:08.404Z,120.63
2018-03-16T07:36:36.552Z,115.23
2018-03-16T07:39:04.711Z,117.43
2018-03-16T07:41:32.855Z,120.93
2018-03-16T07:44:00.999Z,124.50
2018-03-16T07:46:29.139Z,120.80
2018-03-16T07:48:57.288Z,124.27
2018-03-16T07:51:25.406Z,138.07
2018-03-16T07:53:53.532Z,122.73
2018-03-16T07:56:21.675Z,122.63
2018-03-16T07:58:49.820Z,121.43
2018-03-16T08:01:17.955Z,124.43
2018-03-16T08:03:46.092Z,125.57
2018-03-16T08:06:14.232Z,133.60
2018-03-16T08:08:42.374Z,133.17
2018-03-16T08:11:10.807Z,122.22
2018-03-16T08:13:39.017Z,137.00
2018-03-16T08:16:07.155Z,117.87
2018-03-16T08:18:35.296Z,116.90
2018-03-16T08:21:03.515Z,120.70
2018-03-16T08:23:31.644Z,113.88
2018-03-16T08:25:59.774Z,119.30
2018-03-16T08:28:27.895Z,109.70
2018-03-16T08:30:56.027Z,108.43
2018-03-16T08:33:25.223Z,112.57
2018-03-16T08:35:53.343Z,109.60
2018-03-16T08:38:21.472Z,114.43
2018-03-16T08:40:49.608Z,106.03
2018-03-16T08:43:17.737Z,98.67
2018-03-16T08:45:46.012Z,100.50
2018-03-16T08:48:14.155Z,118.45
2018-03-16T08:50:42.319Z,97.67
2018-03-16T08:53:10.423Z,102.37
2018-03-16T08:55:38.567Z,106.37
2018-03-16T08:58:06.699Z,106.73
2018-03-16T09:00:34.889Z,113.50
2018-03-16T09:03:03.012Z,115.73
2018-03-16T09:05:31.144Z,114.87
2018-03-16T09:07:59.281Z,101.73
2018-03-16T09:10:27.419Z,102.10
2018-03-16T09:12:55.570Z,101.30
2018-03-16T09:15:23.705Z,101.12
2018-03-16T09:17:51.838Z,97.03
2018-03-16T09:20:19.968Z,94.77
2018-03-16T09:22:48.098Z,106.27
2018-03-16T09:25:16.235Z,90.18
2018-03-16T09:27:44.355Z,93.77
2018-03-16T09:30:12.491Z,90.37
2018-03-16T09:32:40.624Z,84.73
2018-03-16T09:35:08.752Z,87.40
2018-03-16T09:37:36.888Z,94.17
2018-03-16T09:40:05.011Z,82.80
2018-03-16T09:42:33.146Z,85.13
2018-03-16T09:45:01.269Z,83.20
2018-03-16T09:47:29.407Z,85.30
2018-03-16T09:49:57.531Z,75.87
2018-03-16T09:52:25.668Z,77.07
2018-03-16T09:55:05.464Z,80.12
2018-03-16T09:57:33.593Z,75.27
2018-03-16T10:00:01.720Z,82.30
2018-03-16T10:02:29.850Z,81.53
2018-03-16T10:04:57.980Z,73.20
2018-03-16T10:07:26.102Z,71.68
2018-03-16T10:09:54.265Z,71.37
2018-03-16T10:12:22.381Z,60.97
2018-03-16T10:14:50.521Z,58.43
2018-03-16T10:17:18.647Z,58.72
2018-03-16T10:19:46.768Z,62.00
2018-03-16T10:22:14.899Z,60.73
2018-03-16T10:24:43.038Z,56.40
2018-03-16T10:27:11.207Z,67.00
2018-03-16T10:29:42.265Z,63.57
2018-03-16T10:32:10.412Z,60.20
2018-03-16T10:34:38.569Z,57.07
2018-03-16T10:37:06.818Z,65.40
2018-03-16T10:39:35.176Z,61.10
2018-03-16T10:42:03.326Z,59.30
2018-03-16T10:44:31.456Z,53.67
2018-03-16T10:46:59.596Z,55.77
2018-03-16T10:49:27.726Z,57.13
2018-03-16T10:51:55.867Z,55.97
2018-03-16T10:54:24.008Z,55.80
2018-03-16T10:56:52.130Z,53.17
2018-03-16T10:59:20.266Z,51.40
2018-03-16T11:01:54.056Z,53.50
2018-03-16T11:04:27.659Z,54.60
2018-03-16T11:07:01.511Z,47.73
2018-03-16T11:09:40.250Z,39.17
2018-03-16T11:12:08.384Z,34.50
2018-03-16T11:14:36.518Z,33.23
2018-03-16T11:17:04.642Z,35.93
2018-03-16T11:19:32.788Z,35.73
2018-03-16T11:22:00.915Z,37.10
2018-03-16T11:24:29.041Z,37.30
2018-03-16T11:26:57.177Z,34.93
2018-03-16T11:29:25.312Z,33.90
2018-03-16T11:31:53.437Z,31.40
2018-03-16T11:34:21.557Z,34.07
2018-03-16T11:36:49.708Z,33.73
2018-03-16T11:39:17.840Z,36.50
2018-03-16T11:41:45.968Z,31.53
2018-03-16T11:44:14.110Z,30.87
2018-03-16T11:46:42.244Z,33.55
2018-03-16T11:49:10.471Z,32.30
2018-03-16T11:51:38.558Z,31.07
2018-03-16T11:54:06.701Z,29.07
2018-03-16T11:56:34.851Z,28.07
2018-03-16T11:59:03.005Z,26.20
2018-03-16T12:01:31.160Z,29.33
2018-03-16T12:03:59.355Z,25.50
2018-03-16T12:06:27.517Z,24.40
2018-03-16T12:08:55.684Z,20.02
2018-03-16T12:11:23.800Z,24.02
2018-03-16T12:13:51.945Z,24.33
2018-03-16T12:16:20.075Z,23.50
2018-03-16T12:18:48.226Z,23.00
2018-03-16T12:21:16.376Z,25.60
2018-03-16T12:23:47.529Z,25.23
2018-03-16T12:26:15.664Z,21.63
2018-03-16T12:28:49.815Z,15.90
2018-03-16T12:31:12.044Z,15.90
2018-03-16T12:33:40.198Z,14.47
2018-03-16T12:36:08.341Z,12.50
2018-03-16T12:38:36.564Z,15.17
2018-03-16T12:41:04.705Z,12.80
2018-03-16T12:43:32.879Z,12.93
2018-03-16T12:46:01.043Z,12.23
2018-03-16T12:48:29.676Z,11.83
2018-03-16T12:50:57.810Z,11.23
2018-03-16T12:53:26.009Z,10.48
2018-03-16T12:55:54.110Z,11.95
2018-03-16T12:58:22.256Z,13.90
2018-03-16T13:00:50.396Z,12.73
2018-03-16T13:03:18.565Z,12.70
2018-03-16T13:05:46.703Z,12.53
2018-03-16T13:08:14.901Z,13.40
2018-03-16T13:10:43.099Z,12.30
2018-03-16T13:13:11.291Z,13.37
2018-03-16T13:15:39.480Z,18.30
2018-03-16T13:18:07.639Z,12.37
2018-03-16T13:20:35.797Z,12.27
2018-03-16T13:23:04.015Z,13.30
2018-03-16T13:25:32.187Z,14.63
2018-03-16T13:28:00.419Z,12.80
2018-03-16T13:30:28.548Z,14.80
2018-03-16T13:32:56.745Z,13.07
2018-03-16T13:35:24.864Z,12.70
2018-03-16T13:37:53.015Z,14.00
2018-03-16T13:40:21.196Z,12.57
2018-03-16T13:42:49.344Z,11.33
2018-03-16T13:45:17.577Z,11.40
2018-03-16T13:47:45.710Z,14.83
2018-03-16T13:50:13.867Z,10.70
2018-03-16T13:52:42.061Z,12.80
2018-03-16T13:55:10.194Z,9.43
2018-03-16T13:57:38.342Z,9.30
2018-03-16T14:00:17.385Z,8.83
2018-03-16T14:02:45.542Z,9.63
2018-03-16T14:05:13.720Z,7.70
2018-03-16T14:07:41.862Z,9.20
2018-03-16T14:10:10.138Z,9.23
2018-03-16T14:12:38.293Z,6.80
2018-03-16T14:15:06.501Z,7.10
2018-03-16T14:17:34.701Z,6.00
2018-03-16T14:20:02.833Z,6.00
2018-03-16T14:22:30.965Z,5.80
2018-03-16T14:24:59.101Z,5.93
2018-03-16T14:27:27.304Z,6.07
2018-03-16T14:29:55.451Z,6.27
2018-03-16T14:32:23.584Z,6.07
2018-03-16T14:34:51.728Z,5.70
2018-03-16T14:37:19.878Z,6.72
2018-03-16T14:39:48.010Z,6.10
2018-03-16T14:42:16.173Z,6.27
2018-03-16T14:44:44.311Z,6.77
2018-03-16T14:47:12.439Z,6.57
2018-03-16T14:49:40.601Z,7.67
2018-03-16T14:52:08.769Z,6.63
2018-03-16T14:54:36.890Z,7.00
2018-03-16T14:57:05.045Z,6.13
2018-03-16T14:59:33.217Z,7.30
2018-03-16T15:02:01.360Z,6.47
2018-03-16T15:04:31.695Z,10.10
2018-03-16T15:06:59.825Z,7.90
2018-03-16T15:09:27.957Z,7.20
2018-03-16T15:11:56.129Z,16.90
2018-03-16T15:14:24.273Z,8.20
2018-03-16T15:16:52.412Z,11.40
2018-03-16T15:19:20.572Z,6.80
2018-03-16T15:21:48.742Z,7.70
2018-03-16T15:24:16.924Z,7.77
2018-03-16T15:26:45.064Z,6.87
2018-03-16T15:29:13.202Z,6.70
2018-03-16T15:31:41.380Z,9.63
2018-03-16T15:34:09.503Z,7.07
2018-03-16T15:36:37.639Z,7.37
2018-03-16T15:39:05.851Z,7.70
2018-03-16T15:41:34.053Z,7.17
2018-03-16T15:44:02.216Z,8.53
2018-03-16T15:46:30.340Z,7.63
2018-03-16T15:48:58.508Z,7.27
2018-03-16T15:51:26.620Z,6.82
2018-03-16T15:53:54.820Z,7.10
2018-03-16T15:56:22.937Z,7.37
2018-03-16T15:58:51.091Z,7.53
2018-03-16T16:01:19.231Z,8.23
2018-03-16T16:03:47.373Z,7.53
2018-03-16T16:06:15.515Z,8.97
2018-03-16T16:08:43.688Z,9.00
2018-03-16T16:11:11.838Z,13.38
2018-03-16T16:13:39.964Z,8.33
2018-03-16T16:16:08.104Z,8.47
2018-03-16T16:18:36.267Z,8.80
2018-03-16T16:21:04.401Z,8.23
2018-03-16T16:23:34.361Z,8.27
2018-03-16T16:26:02.509Z,9.18
2018-03-16T16:28:30.635Z,8.10
2018-03-16T16:30:58.809Z,8.70
2018-03-16T16:33:26.983Z,7.95
2018-03-16T16:35:55.175Z,6.80
2018-03-16T16:38:23.366Z,11.23
2018-03-16T16:40:51.500Z,8.40
2018-03-16T16:43:19.649Z,10.50
2018-03-16T16:45:47.761Z,6.63
2018-03-16T16:48:15.877Z,6.53
2018-03-16T16:50:44.021Z,7.33
2018-03-16T16:53:12.149Z,7.77
2018-03-16T16:55:40.280Z,7.57
2018-03-16T16:58:08.400Z,9.13
2018-03-16T17:00:36.544Z,8.07
2018-03-16T17:03:04.682Z,9.10
2018-03-16T17:05:32.847Z,8.97
2018-03-16T17:08:00.961Z,8.73
2018-03-16T17:10:29.085Z,9.83
2018-03-16T17:12:57.213Z,9.27
2018-03-16T17:15:25.321Z,5.47
2018-03-16T17:17:53.450Z,4.13
2018-03-16T17:20:21.574Z,2.60
2018-03-16T17:22:49.736Z,2.63
2018-03-16T17:25:17.860Z,2.80
2018-03-16T17:27:46.104Z,2.70
2018-03-16T17:30:14.217Z,3.17
2018-03-16T17:32:42.402Z,3.60
2018-03-16T17:35:10.927Z,3.35
2018-03-16T17:37:39.043Z,3.00
2018-03-16T17:40:07.344Z,8.07
2018-03-16T17:42:35.526Z,5.77
2018-03-16T17:45:03.628Z,6.23
2018-03-16T17:47:31.760Z,5.30
2018-03-16T17:49:59.894Z,5.72
2018-03-16T17:52:28.026Z,4.57
2018-03-16T17:54:56.140Z,4.17
2018-03-16T17:57:24.276Z,3.70
2018-03-16T17:59:52.405Z,4.60
2018-03-16T18:02:20.535Z,5.47
2018-03-16T18:04:48.653Z,5.33
2018-03-16T18:07:16.795Z,5.43
2018-03-16T18:09:44.908Z,7.87
2018-03-16T18:12:13.040Z,4.37
2018-03-16T18:14:41.222Z,4.53
2018-03-16T18:17:09.310Z,5.20
2018-03-16T18:19:37.426Z,3.70
2018-03-16T18:22:05.541Z,5.70
2018-03-16T18:24:33.655Z,6.20
2018-03-16T18:27:01.774Z,5.87
2018-03-16T18:29:30.599Z,7.47
2018-03-16T18:31:58.727Z,9.30
2018-03-16T18:34:26.860Z,8.37
2018-03-16T18:36:54.972Z,5.30
2018-03-16T18:39:23.096Z,6.27
2018-03-16T18:41:51.224Z,6.47
2018-03-16T18:44:19.339Z,5.80
2018-03-16T18:46:47.455Z,5.80
2018-03-16T18:49:15.579Z,6.35
2018-03-16T18:51:43.689Z,9.93
2018-03-16T18:54:11.813Z,7.25
2018-03-16T18:56:39.928Z,6.63
2018-03-16T18:59:08.057Z,5.10
2018-03-16T19:01:36.178Z,4.87
2018-03-16T19:04:04.406Z,5.23
2018-03-16T19:06:32.538Z,5.47
2018-03-16T19:09:00.680Z,7.73
2018-03-16T19:11:28.801Z,5.50
2018-03-16T19:13:56.917Z,4.70
2018-03-16T19:16:25.029Z,4.43
2018-03-16T19:18:53.177Z,5.77
2018-03-16T19:21:21.303Z,6.57
2018-03-16T19:23:49.452Z,6.10
2018-03-16T19:26:17.564Z,5.57
2018-03-16T19:28:45.702Z,6.07
2018-03-16T19:31:13.826Z,5.43
2018-03-16T19:33:41.945Z,6.30
2018-03-16T19:36:10.077Z,5.83
2018-03-16T19:38:38.237Z,5.87
2018-03-16T19:41:06.401Z,6.13
2018-03-16T19:43:34.541Z,6.53
2018-03-16T19:46:02.665Z,6.07
2018-03-16T19:48:30.806Z,6.45
2018-03-16T19:50:58.946Z,7.50
2018-03-16T19:53:27.100Z,7.78
2018-03-16T19:55:55.269Z,10.90
2018-03-16T19:58:23.411Z,12.50
2018-03-16T20:00:51.693Z,8.40
2018-03-16T20:03:20.267Z,8.40
2018-03-16T20:05:48.413Z,9.27
2018-03-16T20:08:16.564Z,7.97
2018-03-16T20:10:44.704Z,7.97
2018-03-16T20:13:12.822Z,12.00
2018-03-16T20:15:40.970Z,10.20
2018-03-16T20:18:09.605Z,10.37
2018-03-16T20:20:37.756Z,9.95
2018-03-16T20:23:05.944Z,10.57
2018-03-16T20:25:34.073Z,8.80
2018-03-16T20:28:02.231Z,9.50
2018-03-16T20:30:30.354Z,11.97
2018-03-16T20:32:58.499Z,13.70
2018-03-16T20:35:26.648Z,11.37
2018-03-16T20:37:54.805Z,14.70
2018-03-16T20:40:22.946Z,19.80
2018-03-16T20:42:51.092Z,15.90
2018-03-16T20:45:19.232Z,13.40
2018-03-16T20:47:47.365Z,14.83
2018-03-16T20:50:15.519Z,14.80
2018-03-16T20:52:43.663Z,14.33
2018-03-16T20:55:11.783Z,15.60
2018-03-16T20:57:39.903Z,13.35
2018-03-16T21:00:08.050Z,13.57
2018-03-16T21:02:36.181Z,15.30
2018-03-16T21:05:04.317Z,14.93
2018-03-16T21:07:33.166Z,15.30
2018-03-16T21:10:01.885Z,16.03
2018-03-16T21:12:30.039Z,15.77
2018-03-16T21:14:58.171Z,14.90
2018-03-16T21:17:26.316Z,16.00
2018-03-16T21:19:54.450Z,15.80
2018-03-16T21:22:22.599Z,13.63
2018-03-16T21:24:50.735Z,16.83
2018-03-16T21:27:18.868Z,20.63
2018-03-16T21:29:46.998Z,22.40
2018-03-16T21:32:15.202Z,25.30
2018-03-16T21:34:43.326Z,20.47
2018-03-16T21:37:11.476Z,16.70
2018-03-16T21:39:39.674Z,17.80
2018-03-16T21:42:07.795Z,15.80
2018-03-16T21:44:35.950Z,14.83
2018-03-16T21:47:04.095Z,15.10
2018-03-16T21:49:32.325Z,15.40
2018-03-16T21:52:00.489Z,15.00
2018-03-16T21:54:28.664Z,13.80
2018-03-16T21:56:56.792Z,15.60
2018-03-16T21:59:24.920Z,15.97
2018-03-16T22:01:53.073Z,20.67
2018-03-16T22:04:21.188Z,21.95
2018-03-16T22:06:49.375Z,22.30
2018-03-16T22:09:17.523Z,18.35
2018-03-16T22:11:45.655Z,21.00
2018-03-16T22:14:13.789Z,19.10
2018-03-16T22:16:41.945Z,21.90
2018-03-16T22:19:10.704Z,17.03
2018-03-16T22:21:38.844Z,15.87
2018-03-16T22:24:06.978Z,17.47
2018-03-16T22:26:35.096Z,20.73
2018-03-16T22:29:03.224Z,16.80
2018-03-16T22:31:31.351Z,19.67
2018-03-16T22:33:59.481Z,18.53
2018-03-16T22:36:27.593Z,17.23
2018-03-16T22:38:55.729Z,17.73
2018-03-16T22:41:23.860Z,16.30
2018-03-16T22:43:51.992Z,15.87
2018-03-16T22:46:20.123Z,20.60
2018-03-16T22:48:48.244Z,15.97
2018-03-16T22:51:16.374Z,14.20
2018-03-16T22:53:44.540Z,14.03
2018-03-16T22:56:12.668Z,13.30
2018-03-16T22:58:40.805Z,18.43
2018-03-16T23:01:08.945Z,18.30
2018-03-16T23:03:37.101Z,15.73
2018-03-16T23:06:05.231Z,14.20
2018-03-16T23:08:33.367Z,15.88
2018-03-16T23:11:01.510Z,12.43
2018-03-16T23:13:29.640Z,11.67
2018-03-16T23:15:57.807Z,11.67
2018-03-16T23:18:25.924Z,12.10
2018-03-16T23:20:54.078Z,12.17
2018-03-16T23:23:22.209Z,12.23
2018-03-16T23:25:50.335Z,12.40
2018-03-16T23:28:18.463Z,12.63
2018-03-16T23:30:46.599Z,12.13
2018-03-16T23:33:14.724Z,13.60
2018-03-16T23:35:42.855Z,13.70
2018-03-16T23:38:11.004Z,17.20
2018-03-16T23:40:39.137Z,14.87
2018-03-16T23:43:07.350Z,15.00
2018-03-16T23:45:35.476Z,16.10
2018-03-16T23:48:03.612Z,14.27
2018-03-16T23:50:31.744Z,18.23
2018-03-16T23:52:59.878Z,28.13
2018-03-16T23:55:28.091Z,18.33
2018-03-16T23:57:56.369Z,21.87
